sensor_id;sensor_type;location;lat;lon;timestamp;P1;durP1;ratioP1;P2;durP2;ratioP2
1136;SDS011;557;48.466;7.950;2023-04-03T00:02:23;3.43;;;2.53;;
1136;SDS011;557;48.466;7.950;2023-04-03T00:05:10;4.13;;;2.47;;
1136;SDS011;557;48.466;7.950;2023-04-03T00:07:57;3.07;;;2.10;;
1136;SDS011;557;48.466;7.950;2023-04-03T00:10:45;3.10;;;2.30;;
1136;SDS011;557;48.466;7.950;2023-04-03T00:13:33;2.60;;;2.10;;
1136;SDS011;557;48.466;7.950;2023-04-03T00:16:21;2.83;;;2.20;;
1136;SDS011;557;48.466;7.950;2023-04-03T00:19:08;2.83;;;2.10;;
1136;SDS011;557;48.466;7.950;2023-04-03T00:21:57;3.97;;;3.20;;
1136;SDS011;557;48.466;7.950;2023-04-03T00:24:44;2.83;;;2.10;;
1136;SDS011;557;48.466;7.950;2023-04-03T00:27:31;3.37;;;2.10;;
1136;SDS011;557;48.466;7.950;2023-04-03T00:30:20;3.00;;;1.90;;
1136;SDS011;557;48.466;7.950;2023-04-03T00:33:08;4.40;;;2.60;;
1136;SDS011;557;48.466;7.950;2023-04-03T00:35:58;3.20;;;2.07;;
1136;SDS011;557;48.466;7.950;2023-04-03T00:38:45;3.03;;;2.07;;
1136;SDS011;557;48.466;7.950;2023-04-03T00:41:33;3.33;;;2.13;;
1136;SDS011;557;48.466;7.950;2023-04-03T00:44:21;5.43;;;2.40;;
1136;SDS011;557;48.466;7.950;2023-04-03T00:47:30;2.97;;;2.30;;
1136;SDS011;557;48.466;7.950;2023-04-03T00:50:18;4.93;;;2.67;;
1136;SDS011;557;48.466;7.950;2023-04-03T00:53:06;3.10;;;2.70;;
1136;SDS011;557;48.466;7.950;2023-04-03T00:55:57;3.10;;;2.27;;
1136;SDS011;557;48.466;7.950;2023-04-03T00:58:47;3.83;;;3.30;;
1136;SDS011;557;48.466;7.950;2023-04-03T01:01:38;6.83;;;2.63;;
1136;SDS011;557;48.466;7.950;2023-04-03T01:04:27;4.13;;;2.60;;
1136;SDS011;557;48.466;7.950;2023-04-03T01:07:16;3.90;;;2.23;;
1136;SDS011;557;48.466;7.950;2023-04-03T01:10:08;4.07;;;2.87;;
1136;SDS011;557;48.466;7.950;2023-04-03T01:12:56;3.00;;;2.33;;
1136;SDS011;557;48.466;7.950;2023-04-03T01:15:46;2.83;;;2.00;;
1136;SDS011;557;48.466;7.950;2023-04-03T01:18:33;4.53;;;2.83;;
1136;SDS011;557;48.466;7.950;2023-04-03T01:24:59;3.67;;;2.37;;
1136;SDS011;557;48.466;7.950;2023-04-03T01:27:46;4.37;;;2.97;;
1136;SDS011;557;48.466;7.950;2023-04-03T01:30:34;3.47;;;2.70;;
1136;SDS011;557;48.466;7.950;2023-04-03T01:33:27;3.07;;;1.97;;
1136;SDS011;557;48.466;7.950;2023-04-03T01:36:16;5.67;;;2.10;;
1136;SDS011;557;48.466;7.950;2023-04-03T01:39:06;2.70;;;2.00;;
1136;SDS011;557;48.466;7.950;2023-04-03T01:41:53;4.20;;;2.20;;
1136;SDS011;557;48.466;7.950;2023-04-03T01:44:40;3.63;;;2.40;;
1136;SDS011;557;48.466;7.950;2023-04-03T01:47:28;3.33;;;2.27;;
1136;SDS011;557;48.466;7.950;2023-04-03T01:50:16;3.23;;;2.10;;
1136;SDS011;557;48.466;7.950;2023-04-03T01:53:04;3.50;;;2.47;;
1136;SDS011;557;48.466;7.950;2023-04-03T01:55:51;4.17;;;2.40;;
1136;SDS011;557;48.466;7.950;2023-04-03T01:58:38;3.37;;;2.47;;
1136;SDS011;557;48.466;7.950;2023-04-03T02:01:26;3.97;;;2.60;;
1136;SDS011;557;48.466;7.950;2023-04-03T02:04:13;4.17;;;2.73;;
1136;SDS011;557;48.466;7.950;2023-04-03T02:07:02;3.03;;;2.20;;
1136;SDS011;557;48.466;7.950;2023-04-03T02:09:49;3.63;;;2.50;;
1136;SDS011;557;48.466;7.950;2023-04-03T02:12:36;3.87;;;2.60;;
1136;SDS011;557;48.466;7.950;2023-04-03T02:15:24;4.83;;;2.83;;
1136;SDS011;557;48.466;7.950;2023-04-03T02:18:11;3.70;;;2.23;;
1136;SDS011;557;48.466;7.950;2023-04-03T02:20:59;3.10;;;2.40;;
1136;SDS011;557;48.466;7.950;2023-04-03T02:23:47;3.50;;;2.63;;
1136;SDS011;557;48.466;7.950;2023-04-03T02:26:35;3.67;;;2.30;;
1136;SDS011;557;48.466;7.950;2023-04-03T02:29:22;3.43;;;2.57;;
1136;SDS011;557;48.466;7.950;2023-04-03T02:32:09;6.60;;;2.40;;
1136;SDS011;557;48.466;7.950;2023-04-03T02:34:57;4.40;;;2.30;;
1136;SDS011;557;48.466;7.950;2023-04-03T02:37:45;4.00;;;2.57;;
1136;SDS011;557;48.466;7.950;2023-04-03T02:40:33;3.07;;;2.07;;
1136;SDS011;557;48.466;7.950;2023-04-03T02:43:21;5.70;;;2.43;;
1136;SDS011;557;48.466;7.950;2023-04-03T02:46:08;3.00;;;2.10;;
1136;SDS011;557;48.466;7.950;2023-04-03T02:48:55;4.70;;;2.17;;
1136;SDS011;557;48.466;7.950;2023-04-03T02:51:43;5.40;;;2.87;;
1136;SDS011;557;48.466;7.950;2023-04-03T02:54:31;4.70;;;2.40;;
1136;SDS011;557;48.466;7.950;2023-04-03T02:57:19;3.33;;;2.20;;
1136;SDS011;557;48.466;7.950;2023-04-03T03:00:07;5.67;;;2.47;;
1136;SDS011;557;48.466;7.950;2023-04-03T03:02:55;3.60;;;2.30;;
1136;SDS011;557;48.466;7.950;2023-04-03T03:05:43;3.07;;;2.30;;
1136;SDS011;557;48.466;7.950;2023-04-03T03:08:30;2.97;;;2.50;;
1136;SDS011;557;48.466;7.950;2023-04-03T03:11:18;3.43;;;2.10;;
1136;SDS011;557;48.466;7.950;2023-04-03T03:14:07;3.90;;;2.80;;
1136;SDS011;557;48.466;7.950;2023-04-03T03:16:55;3.50;;;2.27;;
1136;SDS011;557;48.466;7.950;2023-04-03T03:19:42;3.30;;;2.53;;
1136;SDS011;557;48.466;7.950;2023-04-03T03:22:31;5.20;;;2.47;;
1136;SDS011;557;48.466;7.950;2023-04-03T03:25:18;3.00;;;2.40;;
1136;SDS011;557;48.466;7.950;2023-04-03T03:28:05;2.80;;;2.20;;
1136;SDS011;557;48.466;7.950;2023-04-03T03:30:55;5.13;;;2.20;;
1136;SDS011;557;48.466;7.950;2023-04-03T03:33:42;4.77;;;2.40;;
1136;SDS011;557;48.466;7.950;2023-04-03T03:36:29;4.53;;;2.60;;
1136;SDS011;557;48.466;7.950;2023-04-03T03:39:17;3.50;;;2.60;;
1136;SDS011;557;48.466;7.950;2023-04-03T03:42:04;4.43;;;2.80;;
1136;SDS011;557;48.466;7.950;2023-04-03T03:44:51;3.23;;;2.20;;
1136;SDS011;557;48.466;7.950;2023-04-03T03:47:40;5.17;;;2.90;;
1136;SDS011;557;48.466;7.950;2023-04-03T03:50:27;4.17;;;3.10;;
1136;SDS011;557;48.466;7.950;2023-04-03T03:53:15;3.80;;;2.50;;
1136;SDS011;557;48.466;7.950;2023-04-03T03:56:03;4.07;;;2.70;;
1136;SDS011;557;48.466;7.950;2023-04-03T03:58:52;4.00;;;2.67;;
1136;SDS011;557;48.466;7.950;2023-04-03T04:01:39;3.60;;;2.40;;
1136;SDS011;557;48.466;7.950;2023-04-03T04:04:28;4.27;;;2.40;;
1136;SDS011;557;48.466;7.950;2023-04-03T04:07:15;5.97;;;2.67;;
1136;SDS011;557;48.466;7.950;2023-04-03T04:10:02;7.07;;;2.77;;
1136;SDS011;557;48.466;7.950;2023-04-03T04:12:50;5.77;;;2.83;;
1136;SDS011;557;48.466;7.950;2023-04-03T04:15:37;4.77;;;2.90;;
1136;SDS011;557;48.466;7.950;2023-04-03T04:18:25;2.90;;;2.60;;
1136;SDS011;557;48.466;7.950;2023-04-03T04:21:14;4.80;;;2.90;;
1136;SDS011;557;48.466;7.950;2023-04-03T04:24:01;4.23;;;3.07;;
1136;SDS011;557;48.466;7.950;2023-04-03T04:26:49;3.67;;;2.50;;
1136;SDS011;557;48.466;7.950;2023-04-03T04:29:36;4.67;;;2.70;;
1136;SDS011;557;48.466;7.950;2023-04-03T04:32:23;3.50;;;2.60;;
1136;SDS011;557;48.466;7.950;2023-04-03T04:35:11;4.20;;;3.13;;
1136;SDS011;557;48.466;7.950;2023-04-03T04:38:00;4.83;;;3.13;;
1136;SDS011;557;48.466;7.950;2023-04-03T04:40:48;3.00;;;2.10;;
1136;SDS011;557;48.466;7.950;2023-04-03T04:43:35;4.03;;;2.67;;
1136;SDS011;557;48.466;7.950;2023-04-03T04:46:23;7.70;;;2.87;;
1136;SDS011;557;48.466;7.950;2023-04-03T04:49:10;5.40;;;3.20;;
1136;SDS011;557;48.466;7.950;2023-04-03T04:51:57;3.90;;;2.77;;
1136;SDS011;557;48.466;7.950;2023-04-03T04:54:46;3.90;;;2.73;;
1136;SDS011;557;48.466;7.950;2023-04-03T04:57:33;4.83;;;2.57;;
1136;SDS011;557;48.466;7.950;2023-04-03T05:00:22;3.30;;;2.60;;
1136;SDS011;557;48.466;7.950;2023-04-03T05:03:10;5.73;;;3.20;;
1136;SDS011;557;48.466;7.950;2023-04-03T05:05:57;4.23;;;3.00;;
1136;SDS011;557;48.466;7.950;2023-04-03T05:08:45;3.43;;;2.53;;
1136;SDS011;557;48.466;7.950;2023-04-03T05:11:34;5.10;;;2.80;;
1136;SDS011;557;48.466;7.950;2023-04-03T05:14:21;4.37;;;2.70;;
1136;SDS011;557;48.466;7.950;2023-04-03T05:17:09;4.10;;;2.83;;
1136;SDS011;557;48.466;7.950;2023-04-03T05:19:56;5.83;;;3.50;;
1136;SDS011;557;48.466;7.950;2023-04-03T05:22:43;4.30;;;2.73;;
1136;SDS011;557;48.466;7.950;2023-04-03T05:25:30;5.03;;;3.50;;
1136;SDS011;557;48.466;7.950;2023-04-03T05:28:19;6.23;;;2.90;;
1136;SDS011;557;48.466;7.950;2023-04-03T05:31:07;3.53;;;2.53;;
1136;SDS011;557;48.466;7.950;2023-04-03T05:33:55;4.07;;;2.90;;
1136;SDS011;557;48.466;7.950;2023-04-03T05:36:43;5.70;;;3.47;;
1136;SDS011;557;48.466;7.950;2023-04-03T05:39:30;4.30;;;2.67;;
1136;SDS011;557;48.466;7.950;2023-04-03T05:42:18;4.90;;;3.13;;
1136;SDS011;557;48.466;7.950;2023-04-03T05:45:07;4.73;;;2.90;;
1136;SDS011;557;48.466;7.950;2023-04-03T05:47:55;4.73;;;2.90;;
1136;SDS011;557;48.466;7.950;2023-04-03T05:50:42;6.10;;;3.27;;
1136;SDS011;557;48.466;7.950;2023-04-03T05:53:30;5.07;;;3.40;;
1136;SDS011;557;48.466;7.950;2023-04-03T05:56:19;3.63;;;2.60;;
1136;SDS011;557;48.466;7.950;2023-04-03T05:59:06;11.30;;;3.33;;
1136;SDS011;557;48.466;7.950;2023-04-03T06:01:56;4.37;;;3.13;;
1136;SDS011;557;48.466;7.950;2023-04-03T06:04:43;3.97;;;2.57;;
1136;SDS011;557;48.466;7.950;2023-04-03T06:07:31;4.60;;;2.73;;
1136;SDS011;557;48.466;7.950;2023-04-03T06:10:18;3.83;;;3.30;;
1136;SDS011;557;48.466;7.950;2023-04-03T06:13:05;5.70;;;3.40;;
1136;SDS011;557;48.466;7.950;2023-04-03T06:15:53;3.40;;;2.97;;
1136;SDS011;557;48.466;7.950;2023-04-03T06:18:42;3.07;;;2.57;;
1136;SDS011;557;48.466;7.950;2023-04-03T06:21:29;5.33;;;2.97;;
1136;SDS011;557;48.466;7.950;2023-04-03T06:24:17;4.07;;;3.77;;
1136;SDS011;557;48.466;7.950;2023-04-03T06:27:05;4.80;;;4.40;;
1136;SDS011;557;48.466;7.950;2023-04-03T06:29:52;6.77;;;4.60;;
1136;SDS011;557;48.466;7.950;2023-04-03T06:32:40;5.10;;;4.70;;
1136;SDS011;557;48.466;7.950;2023-04-03T06:35:29;5.90;;;5.40;;
1136;SDS011;557;48.466;7.950;2023-04-03T06:38:17;5.83;;;5.33;;
1136;SDS011;557;48.466;7.950;2023-04-03T06:41:04;6.83;;;6.23;;
1136;SDS011;557;48.466;7.950;2023-04-03T06:43:52;6.40;;;6.00;;
1136;SDS011;557;48.466;7.950;2023-04-03T06:46:42;6.73;;;6.33;;
1136;SDS011;557;48.466;7.950;2023-04-03T06:49:30;7.80;;;7.30;;
1136;SDS011;557;48.466;7.950;2023-04-03T06:52:19;6.60;;;6.20;;
1136;SDS011;557;48.466;7.950;2023-04-03T06:55:07;7.63;;;7.13;;
1136;SDS011;557;48.466;7.950;2023-04-03T06:57:55;7.60;;;6.90;;
1136;SDS011;557;48.466;7.950;2023-04-03T07:00:42;7.90;;;7.40;;
1136;SDS011;557;48.466;7.950;2023-04-03T07:03:30;8.13;;;7.53;;
1136;SDS011;557;48.466;7.950;2023-04-03T07:06:17;7.70;;;7.20;;
1136;SDS011;557;48.466;7.950;2023-04-03T07:09:06;7.90;;;7.50;;
1136;SDS011;557;48.466;7.950;2023-04-03T07:11:54;8.77;;;8.27;;
1136;SDS011;557;48.466;7.950;2023-04-03T07:14:41;8.30;;;7.80;;
1136;SDS011;557;48.466;7.950;2023-04-03T07:17:29;8.47;;;8.00;;
1136;SDS011;557;48.466;7.950;2023-04-03T07:20:16;8.67;;;8.13;;
1136;SDS011;557;48.466;7.950;2023-04-03T07:23:04;8.90;;;8.40;;
1136;SDS011;557;48.466;7.950;2023-04-03T07:25:52;9.10;;;8.50;;
1136;SDS011;557;48.466;7.950;2023-04-03T07:28:40;9.00;;;8.50;;
1136;SDS011;557;48.466;7.950;2023-04-03T07:31:27;8.90;;;8.40;;
1136;SDS011;557;48.466;7.950;2023-04-03T07:34:14;8.63;;;8.10;;
1136;SDS011;557;48.466;7.950;2023-04-03T07:37:02;8.97;;;8.40;;
1136;SDS011;557;48.466;7.950;2023-04-03T07:39:50;8.93;;;8.20;;
1136;SDS011;557;48.466;7.950;2023-04-03T07:42:39;8.67;;;8.17;;
1136;SDS011;557;48.466;7.950;2023-04-03T07:45:26;8.80;;;8.30;;
1136;SDS011;557;48.466;7.950;2023-04-03T07:48:13;9.20;;;8.70;;
1136;SDS011;557;48.466;7.950;2023-04-03T07:51:01;8.50;;;8.10;;
1136;SDS011;557;48.466;7.950;2023-04-03T07:53:50;9.07;;;8.50;;
1136;SDS011;557;48.466;7.950;2023-04-03T07:56:37;9.20;;;8.70;;
1136;SDS011;557;48.466;7.950;2023-04-03T07:59:26;9.57;;;8.80;;
1136;SDS011;557;48.466;7.950;2023-04-03T08:02:13;8.73;;;8.30;;
1136;SDS011;557;48.466;7.950;2023-04-03T08:05:00;8.50;;;8.00;;
1136;SDS011;557;48.466;7.950;2023-04-03T08:07:48;8.30;;;7.80;;
1136;SDS011;557;48.466;7.950;2023-04-03T08:10:35;8.83;;;8.40;;
1136;SDS011;557;48.466;7.950;2023-04-03T08:13:22;8.70;;;8.30;;
1136;SDS011;557;48.466;7.950;2023-04-03T08:16:12;8.83;;;8.30;;
1136;SDS011;557;48.466;7.950;2023-04-03T08:19:02;8.47;;;8.00;;
1136;SDS011;557;48.466;7.950;2023-04-03T08:21:50;8.80;;;8.30;;
1136;SDS011;557;48.466;7.950;2023-04-03T08:24:37;8.80;;;8.30;;
1136;SDS011;557;48.466;7.950;2023-04-03T08:27:25;9.33;;;8.83;;
1136;SDS011;557;48.466;7.950;2023-04-03T08:30:13;9.57;;;8.97;;
1136;SDS011;557;48.466;7.950;2023-04-03T08:33:02;9.83;;;9.13;;
1136;SDS011;557;48.466;7.950;2023-04-03T08:35:49;9.83;;;9.23;;
1136;SDS011;557;48.466;7.950;2023-04-03T08:38:37;9.53;;;9.03;;
1136;SDS011;557;48.466;7.950;2023-04-03T08:41:26;10.20;;;9.60;;
1136;SDS011;557;48.466;7.950;2023-04-03T08:44:21;9.60;;;9.10;;
1136;SDS011;557;48.466;7.950;2023-04-03T08:47:13;9.90;;;9.40;;
1136;SDS011;557;48.466;7.950;2023-04-03T08:50:12;9.33;;;8.93;;
1136;SDS011;557;48.466;7.950;2023-04-03T08:53:03;9.90;;;9.40;;
1136;SDS011;557;48.466;7.950;2023-04-03T08:55:52;10.10;;;9.60;;
1136;SDS011;557;48.466;7.950;2023-04-03T08:58:41;10.00;;;9.50;;
1136;SDS011;557;48.466;7.950;2023-04-03T09:01:33;10.83;;;10.33;;
1136;SDS011;557;48.466;7.950;2023-04-03T09:04:22;10.20;;;9.70;;
1136;SDS011;557;48.466;7.950;2023-04-03T09:07:12;10.40;;;9.90;;
1136;SDS011;557;48.466;7.950;2023-04-03T09:10:06;11.33;;;10.63;;
1136;SDS011;557;48.466;7.950;2023-04-03T09:12:58;10.93;;;10.43;;
1136;SDS011;557;48.466;7.950;2023-04-03T09:15:48;10.90;;;10.40;;
1136;SDS011;557;48.466;7.950;2023-04-03T09:18:35;11.17;;;10.57;;
1136;SDS011;557;48.466;7.950;2023-04-03T09:21:30;11.27;;;10.67;;
1136;SDS011;557;48.466;7.950;2023-04-03T09:24:24;10.90;;;10.30;;
1136;SDS011;557;48.466;7.950;2023-04-03T09:27:12;10.20;;;9.70;;
1136;SDS011;557;48.466;7.950;2023-04-03T09:29:59;10.40;;;9.80;;
1136;SDS011;557;48.466;7.950;2023-04-03T09:32:47;10.13;;;9.63;;
1136;SDS011;557;48.466;7.950;2023-04-03T09:35:36;10.37;;;9.87;;
1136;SDS011;557;48.466;7.950;2023-04-03T09:38:24;11.07;;;10.57;;
1136;SDS011;557;48.466;7.950;2023-04-03T09:41:15;11.53;;;10.83;;
1136;SDS011;557;48.466;7.950;2023-04-03T09:44:04;11.07;;;10.57;;
1136;SDS011;557;48.466;7.950;2023-04-03T09:47:17;11.53;;;10.93;;
1136;SDS011;557;48.466;7.950;2023-04-03T09:50:15;11.50;;;10.90;;
1136;SDS011;557;48.466;7.950;2023-04-03T09:53:06;11.30;;;10.80;;
1136;SDS011;557;48.466;7.950;2023-04-03T09:56:21;11.33;;;10.73;;
1136;SDS011;557;48.466;7.950;2023-04-03T09:59:13;11.70;;;11.10;;
1136;SDS011;557;48.466;7.950;2023-04-03T10:02:03;11.57;;;11.00;;
1136;SDS011;557;48.466;7.950;2023-04-03T10:05:05;10.93;;;10.43;;
1136;SDS011;557;48.466;7.950;2023-04-03T10:08:23;10.77;;;10.27;;
1136;SDS011;557;48.466;7.950;2023-04-03T10:11:13;11.33;;;10.83;;
1136;SDS011;557;48.466;7.950;2023-04-03T10:14:03;11.30;;;10.80;;
1136;SDS011;557;48.466;7.950;2023-04-03T10:16:52;11.67;;;11.07;;
1136;SDS011;557;48.466;7.950;2023-04-03T10:19:50;11.87;;;11.27;;
1136;SDS011;557;48.466;7.950;2023-04-03T10:22:41;11.00;;;10.40;;
1136;SDS011;557;48.466;7.950;2023-04-03T10:25:40;11.50;;;11.00;;
1136;SDS011;557;48.466;7.950;2023-04-03T10:28:31;12.30;;;11.70;;
1136;SDS011;557;48.466;7.950;2023-04-03T10:31:28;12.53;;;11.93;;
1136;SDS011;557;48.466;7.950;2023-04-03T10:34:20;12.00;;;11.40;;
1136;SDS011;557;48.466;7.950;2023-04-03T10:37:12;11.30;;;10.80;;
1136;SDS011;557;48.466;7.950;2023-04-03T10:40:12;11.57;;;10.97;;
1136;SDS011;557;48.466;7.950;2023-04-03T10:43:09;11.73;;;11.13;;
1136;SDS011;557;48.466;7.950;2023-04-03T10:46:05;11.10;;;10.60;;
1136;SDS011;557;48.466;7.950;2023-04-03T10:49:03;11.70;;;11.20;;
1136;SDS011;557;48.466;7.950;2023-04-03T10:52:02;12.07;;;11.57;;
1136;SDS011;557;48.466;7.950;2023-04-03T10:54:56;12.67;;;12.00;;
1136;SDS011;557;48.466;7.950;2023-04-03T10:57:53;12.53;;;11.93;;
1136;SDS011;557;48.466;7.950;2023-04-03T11:00:44;13.70;;;12.90;;
1136;SDS011;557;48.466;7.950;2023-04-03T11:03:34;13.43;;;12.73;;
1136;SDS011;557;48.466;7.950;2023-04-03T11:06:28;13.27;;;12.57;;
1136;SDS011;557;48.466;7.950;2023-04-03T11:09:22;13.53;;;12.93;;
1136;SDS011;557;48.466;7.950;2023-04-03T11:12:13;13.50;;;12.90;;
1136;SDS011;557;48.466;7.950;2023-04-03T11:15:04;13.20;;;12.60;;
1136;SDS011;557;48.466;7.950;2023-04-03T11:17:53;13.27;;;12.63;;
1136;SDS011;557;48.466;7.950;2023-04-03T11:20:47;13.77;;;13.07;;
1136;SDS011;557;48.466;7.950;2023-04-03T11:23:41;14.13;;;13.33;;
1136;SDS011;557;48.466;7.950;2023-04-03T11:26:30;13.13;;;12.53;;
1136;SDS011;557;48.466;7.950;2023-04-03T11:29:23;13.00;;;12.40;;
1136;SDS011;557;48.466;7.950;2023-04-03T11:32:23;13.27;;;12.67;;
1136;SDS011;557;48.466;7.950;2023-04-03T11:35:22;12.17;;;11.67;;
1136;SDS011;557;48.466;7.950;2023-04-03T11:38:14;13.20;;;12.50;;
1136;SDS011;557;48.466;7.950;2023-04-03T11:41:08;13.17;;;12.53;;
1136;SDS011;557;48.466;7.950;2023-04-03T11:43:59;13.13;;;12.43;;
1136;SDS011;557;48.466;7.950;2023-04-03T11:46:48;13.00;;;12.30;;
1136;SDS011;557;48.466;7.950;2023-04-03T11:49:51;11.97;;;11.47;;
1136;SDS011;557;48.466;7.950;2023-04-03T11:53:00;12.97;;;12.23;;
1136;SDS011;557;48.466;7.950;2023-04-03T11:55:52;13.10;;;12.50;;
1136;SDS011;557;48.466;7.950;2023-04-03T11:58:45;13.40;;;12.70;;
1136;SDS011;557;48.466;7.950;2023-04-03T12:02:13;13.13;;;12.50;;
1136;SDS011;557;48.466;7.950;2023-04-03T12:05:26;12.57;;;11.87;;
1136;SDS011;557;48.466;7.950;2023-04-03T12:08:15;12.97;;;12.37;;
1136;SDS011;557;48.466;7.950;2023-04-03T12:11:20;12.60;;;11.90;;
1136;SDS011;557;48.466;7.950;2023-04-03T12:14:15;12.87;;;12.10;;
1136;SDS011;557;48.466;7.950;2023-04-03T12:17:03;12.70;;;12.10;;
1136;SDS011;557;48.466;7.950;2023-04-03T12:23:28;13.60;;;12.70;;
1136;SDS011;557;48.466;7.950;2023-04-03T12:26:19;13.00;;;12.30;;
1136;SDS011;557;48.466;7.950;2023-04-03T12:29:10;13.27;;;12.67;;
1136;SDS011;557;48.466;7.950;2023-04-03T12:32:06;13.10;;;12.40;;
1136;SDS011;557;48.466;7.950;2023-04-03T12:35:09;12.90;;;12.20;;
1136;SDS011;557;48.466;7.950;2023-04-03T12:38:25;12.77;;;12.17;;
1136;SDS011;557;48.466;7.950;2023-04-03T12:41:36;12.73;;;12.13;;
1136;SDS011;557;48.466;7.950;2023-04-03T12:44:33;12.73;;;12.13;;
1136;SDS011;557;48.466;7.950;2023-04-03T12:47:31;13.23;;;12.43;;
1136;SDS011;557;48.466;7.950;2023-04-03T12:50:23;12.70;;;12.10;;
1136;SDS011;557;48.466;7.950;2023-04-03T12:53:16;13.20;;;12.27;;
1136;SDS011;557;48.466;7.950;2023-04-03T12:56:19;13.50;;;12.90;;
1136;SDS011;557;48.466;7.950;2023-04-03T12:59:14;13.50;;;12.77;;
1136;SDS011;557;48.466;7.950;2023-04-03T13:02:10;12.83;;;12.13;;
1136;SDS011;557;48.466;7.950;2023-04-03T13:05:13;13.30;;;12.60;;
1136;SDS011;557;48.466;7.950;2023-04-03T13:08:04;12.67;;;12.07;;
1136;SDS011;557;48.466;7.950;2023-04-03T13:10:58;13.30;;;12.37;;
1136;SDS011;557;48.466;7.950;2023-04-03T13:13:58;12.73;;;12.13;;
1136;SDS011;557;48.466;7.950;2023-04-03T13:16:55;12.00;;;11.50;;
1136;SDS011;557;48.466;7.950;2023-04-03T13:19:45;12.30;;;11.70;;
1136;SDS011;557;48.466;7.950;2023-04-03T13:22:33;12.43;;;11.83;;
1136;SDS011;557;48.466;7.950;2023-04-03T13:25:25;12.90;;;12.20;;
1136;SDS011;557;48.466;7.950;2023-04-03T13:28:17;12.10;;;11.50;;
1136;SDS011;557;48.466;7.950;2023-04-03T13:31:08;12.77;;;12.13;;
1136;SDS011;557;48.466;7.950;2023-04-03T13:34:06;12.60;;;12.00;;
1136;SDS011;557;48.466;7.950;2023-04-03T13:36:59;12.57;;;11.97;;
1136;SDS011;557;48.466;7.950;2023-04-03T13:39:56;12.60;;;11.93;;
1136;SDS011;557;48.466;7.950;2023-04-03T13:42:46;13.00;;;12.40;;
1136;SDS011;557;48.466;7.950;2023-04-03T13:45:56;12.67;;;12.07;;
1136;SDS011;557;48.466;7.950;2023-04-03T13:48:46;13.03;;;12.43;;
1136;SDS011;557;48.466;7.950;2023-04-03T13:51:37;13.13;;;12.53;;
1136;SDS011;557;48.466;7.950;2023-04-03T13:54:28;12.70;;;12.10;;
1136;SDS011;557;48.466;7.950;2023-04-03T13:57:18;12.80;;;12.20;;
1136;SDS011;557;48.466;7.950;2023-04-03T14:03:18;12.60;;;11.97;;
1136;SDS011;557;48.466;7.950;2023-04-03T14:06:10;12.60;;;12.00;;
1136;SDS011;557;48.466;7.950;2023-04-03T14:08:59;13.03;;;12.33;;
1136;SDS011;557;48.466;7.950;2023-04-03T14:11:48;12.63;;;11.93;;
1136;SDS011;557;48.466;7.950;2023-04-03T14:14:37;12.67;;;12.07;;
1136;SDS011;557;48.466;7.950;2023-04-03T14:17:25;13.23;;;12.27;;
1136;SDS011;557;48.466;7.950;2023-04-03T14:20:14;12.20;;;11.60;;
1136;SDS011;557;48.466;7.950;2023-04-03T14:23:03;12.30;;;11.70;;
1136;SDS011;557;48.466;7.950;2023-04-03T14:25:51;12.60;;;12.00;;
1136;SDS011;557;48.466;7.950;2023-04-03T14:28:41;12.17;;;11.57;;
1136;SDS011;557;48.466;7.950;2023-04-03T14:31:29;12.80;;;12.20;;
1136;SDS011;557;48.466;7.950;2023-04-03T14:34:16;12.43;;;11.80;;
1136;SDS011;557;48.466;7.950;2023-04-03T14:37:04;12.60;;;12.00;;
1136;SDS011;557;48.466;7.950;2023-04-03T14:39:52;12.50;;;11.90;;
1136;SDS011;557;48.466;7.950;2023-04-03T14:42:40;12.97;;;12.27;;
1136;SDS011;557;48.466;7.950;2023-04-03T14:45:29;12.30;;;11.70;;
1136;SDS011;557;48.466;7.950;2023-04-03T14:48:18;12.17;;;11.50;;
1136;SDS011;557;48.466;7.950;2023-04-03T14:51:08;11.90;;;11.30;;
1136;SDS011;557;48.466;7.950;2023-04-03T14:53:57;12.43;;;11.63;;
1136;SDS011;557;48.466;7.950;2023-04-03T14:56:44;11.97;;;11.47;;
1136;SDS011;557;48.466;7.950;2023-04-03T14:59:32;12.10;;;11.50;;
1136;SDS011;557;48.466;7.950;2023-04-03T15:02:28;12.30;;;11.70;;
1136;SDS011;557;48.466;7.950;2023-04-03T15:05:17;12.33;;;11.63;;
1136;SDS011;557;48.466;7.950;2023-04-03T15:08:05;12.43;;;11.73;;
1136;SDS011;557;48.466;7.950;2023-04-03T15:11:00;10.80;;;10.23;;
1136;SDS011;557;48.466;7.950;2023-04-03T15:13:48;11.57;;;11.00;;
1136;SDS011;557;48.466;7.950;2023-04-03T15:16:35;12.23;;;11.57;;
1136;SDS011;557;48.466;7.950;2023-04-03T15:19:24;12.17;;;11.40;;
1136;SDS011;557;48.466;7.950;2023-04-03T15:22:12;11.97;;;11.37;;
1136;SDS011;557;48.466;7.950;2023-04-03T15:25:01;12.30;;;11.70;;
1136;SDS011;557;48.466;7.950;2023-04-03T15:27:48;12.50;;;11.80;;
1136;SDS011;557;48.466;7.950;2023-04-03T15:30:36;11.80;;;11.20;;
1136;SDS011;557;48.466;7.950;2023-04-03T15:33:26;13.37;;;12.40;;
1136;SDS011;557;48.466;7.950;2023-04-03T15:36:15;12.63;;;11.93;;
1136;SDS011;557;48.466;7.950;2023-04-03T15:39:03;12.50;;;11.80;;
1136;SDS011;557;48.466;7.950;2023-04-03T15:41:50;12.13;;;11.53;;
1136;SDS011;557;48.466;7.950;2023-04-03T15:44:39;12.40;;;11.80;;
1136;SDS011;557;48.466;7.950;2023-04-03T15:47:26;12.80;;;12.00;;
1136;SDS011;557;48.466;7.950;2023-04-03T15:50:14;12.70;;;12.10;;
1136;SDS011;557;48.466;7.950;2023-04-03T15:53:03;12.37;;;11.77;;
1136;SDS011;557;48.466;7.950;2023-04-03T15:55:50;12.00;;;11.40;;
1136;SDS011;557;48.466;7.950;2023-04-03T15:58:37;12.00;;;11.30;;
1136;SDS011;557;48.466;7.950;2023-04-03T16:01:25;13.57;;;12.77;;
1136;SDS011;557;48.466;7.950;2023-04-03T16:04:13;11.60;;;11.10;;
1136;SDS011;557;48.466;7.950;2023-04-03T16:07:01;12.33;;;11.53;;
1136;SDS011;557;48.466;7.950;2023-04-03T16:09:50;12.00;;;11.40;;
1136;SDS011;557;48.466;7.950;2023-04-03T16:12:38;12.10;;;11.50;;
1136;SDS011;557;48.466;7.950;2023-04-03T16:15:26;12.40;;;11.60;;
1136;SDS011;557;48.466;7.950;2023-04-03T16:18:14;12.40;;;11.70;;
1136;SDS011;557;48.466;7.950;2023-04-03T16:21:04;12.20;;;11.40;;
1136;SDS011;557;48.466;7.950;2023-04-03T16:23:53;12.20;;;11.30;;
1136;SDS011;557;48.466;7.950;2023-04-03T16:26:44;13.10;;;12.30;;
1136;SDS011;557;48.466;7.950;2023-04-03T16:29:31;14.17;;;13.47;;
1136;SDS011;557;48.466;7.950;2023-04-03T16:32:18;15.00;;;14.30;;
1136;SDS011;557;48.466;7.950;2023-04-03T16:35:06;14.85;;;14.15;;
1136;SDS011;557;48.466;7.950;2023-04-03T16:37:55;15.90;;;15.18;;
1136;SDS011;557;48.466;7.950;2023-04-03T16:40:43;15.07;;;14.38;;
1136;SDS011;557;48.466;7.950;2023-04-03T16:43:31;15.32;;;14.63;;
1136;SDS011;557;48.466;7.950;2023-04-03T16:46:19;14.90;;;14.30;;
1136;SDS011;557;48.466;7.950;2023-04-03T16:49:06;14.90;;;14.20;;
1136;SDS011;557;48.466;7.950;2023-04-03T16:51:53;14.67;;;13.87;;
1136;SDS011;557;48.466;7.950;2023-04-03T16:54:41;14.17;;;13.47;;
1136;SDS011;557;48.466;7.950;2023-04-03T16:57:28;14.40;;;13.60;;
1136;SDS011;557;48.466;7.950;2023-04-03T17:00:17;14.37;;;13.67;;
1136;SDS011;557;48.466;7.950;2023-04-03T17:03:05;14.37;;;13.67;;
1136;SDS011;557;48.466;7.950;2023-04-03T17:05:52;14.40;;;13.60;;
1136;SDS011;557;48.466;7.950;2023-04-03T17:08:40;13.83;;;13.13;;
1136;SDS011;557;48.466;7.950;2023-04-03T17:11:28;13.97;;;13.17;;
1136;SDS011;557;48.466;7.950;2023-04-03T17:14:16;13.57;;;12.80;;
1136;SDS011;557;48.466;7.950;2023-04-03T17:17:05;13.70;;;13.00;;
1136;SDS011;557;48.466;7.950;2023-04-03T17:19:53;13.60;;;12.90;;
1136;SDS011;557;48.466;7.950;2023-04-03T17:22:41;13.47;;;12.77;;
1136;SDS011;557;48.466;7.950;2023-04-03T17:25:29;12.93;;;12.33;;
1136;SDS011;557;48.466;7.950;2023-04-03T17:28:17;12.80;;;12.20;;
1136;SDS011;557;48.466;7.950;2023-04-03T17:31:04;12.50;;;11.90;;
1136;SDS011;557;48.466;7.950;2023-04-03T17:33:54;12.87;;;12.17;;
1136;SDS011;557;48.466;7.950;2023-04-03T17:36:41;12.50;;;11.90;;
1136;SDS011;557;48.466;7.950;2023-04-03T17:39:29;12.87;;;12.27;;
1136;SDS011;557;48.466;7.950;2023-04-03T17:42:16;15.40;;;14.30;;
1136;SDS011;557;48.466;7.950;2023-04-03T17:45:04;13.23;;;12.63;;
1136;SDS011;557;48.466;7.950;2023-04-03T17:47:52;13.97;;;13.17;;